createdAt,value
2022-09-13T00:01:04.789Z,0
2022-09-13T00:06:27.763Z,0
2022-09-13T00:11:50.350Z,0
2022-09-13T00:17:20.843Z,0
2022-09-13T00:22:43.482Z,0
2022-09-13T00:28:06.149Z,0
2022-09-13T00:33:32.017Z,0
2022-09-13T00:38:54.599Z,0
2022-09-13T00:44:18.541Z,0
2022-09-13T00:49:47.052Z,0
2022-09-13T00:55:09.672Z,0
2022-09-13T01:00:32.015Z,0
2022-09-13T01:05:54.589Z,0
2022-09-13T01:11:17.052Z,0
2022-09-13T01:16:45.930Z,0
2022-09-13T01:22:13.437Z,0
2022-09-13T01:27:38.737Z,0
2022-09-13T01:33:01.076Z,0
2022-09-13T01:38:35.582Z,0
2022-09-13T01:43:57.995Z,0
2022-09-13T01:49:20.814Z,0
2022-09-13T01:54:44.313Z,0
2022-09-13T02:00:06.838Z,0
2022-09-13T02:05:29.760Z,0
2022-09-13T02:10:52.183Z,0
2022-09-13T02:16:15.356Z,0
2022-09-13T02:21:38.359Z,0
2022-09-13T02:27:00.845Z,0
2022-09-13T02:37:51.814Z,0
2022-09-13T02:43:14.337Z,0
2022-09-13T02:48:45.791Z,0
2022-09-13T02:54:11.711Z,0
2022-09-13T02:59:44.896Z,0
2022-09-13T03:05:07.051Z,0
2022-09-13T03:10:29.698Z,0
2022-09-13T03:15:52.042Z,0
2022-09-13T03:26:39.838Z,0
2022-09-13T03:32:20.349Z,0
2022-09-13T03:37:54.441Z,0
2022-09-13T03:43:25.945Z,0
2022-09-13T03:48:54.954Z,0
2022-09-13T03:54:17.519Z,0
2022-09-13T03:59:39.992Z,0
2022-09-13T04:05:02.291Z,0
2022-09-13T04:10:24.786Z,0
2022-09-13T04:15:47.601Z,0
2022-09-13T04:21:10.040Z,0
2022-09-13T04:26:32.404Z,0
2022-09-13T04:31:55.329Z,0
2022-09-13T04:37:18.208Z,0
2022-09-13T04:42:40.614Z,0
2022-09-13T04:48:03.159Z,0
2022-09-13T04:53:28.115Z,0
2022-09-13T04:58:50.546Z,0
2022-09-13T05:04:13.750Z,0
2022-09-13T05:09:42.640Z,0
2022-09-13T05:15:05.185Z,0
2022-09-13T05:20:27.857Z,0.1
2022-09-13T05:25:50.317Z,0.1
2022-09-13T05:31:12.819Z,0.1
2022-09-13T05:36:36.105Z,0.1
2022-09-13T05:41:58.728Z,0.1
2022-09-13T05:47:21.719Z,0.1
2022-09-13T05:52:44.492Z,0.1
2022-09-13T05:58:07.124Z,0.2
2022-09-13T06:03:32.685Z,0.2
2022-09-13T06:09:06.520Z,0.3
2022-09-13T06:14:29.261Z,0.3
2022-09-13T06:19:51.667Z,0.4
2022-09-13T06:25:14.328Z,0.4
2022-09-13T06:30:36.731Z,0.4
2022-09-13T06:35:59.522Z,0.5
2022-09-13T06:41:28.459Z,0.5
2022-09-13T06:46:56.537Z,0.4
2022-09-13T06:52:19.194Z,0.4
2022-09-13T06:57:44.552Z,0.5
2022-09-13T07:03:06.834Z,0.6
2022-09-13T07:08:29.701Z,0.8
2022-09-13T07:13:52.577Z,0.8
2022-09-13T07:19:15.268Z,0.7
2022-09-13T07:24:37.786Z,0.7
2022-09-13T07:30:06.560Z,0.8
2022-09-13T07:35:29.191Z,1
2022-09-13T07:41:10.077Z,1.1
2022-09-13T07:46:33.084Z,1.1
2022-09-13T07:51:56.240Z,1.2
2022-09-13T07:57:19.080Z,1.5
2022-09-13T08:02:42.081Z,1.8
2022-09-13T08:51:51.738Z,4
2022-09-13T08:57:14.906Z,4.2
2022-09-13T09:02:37.768Z,4.1
2022-09-13T09:08:03.494Z,3.3
2022-09-13T09:13:26.991Z,3
2022-09-13T09:19:06.690Z,4
2022-09-13T09:24:30.121Z,5.2
2022-09-13T09:29:53.112Z,4.5
2022-09-13T09:35:14.968Z,5.3
2022-09-13T09:40:39.589Z,4.7
2022-09-13T09:46:04.873Z,3.9
2022-09-13T09:51:28.204Z,4.2
2022-09-13T09:56:53.829Z,3.2
2022-09-13T10:02:18.775Z,3.5
2022-09-13T10:13:16.287Z,3.4
2022-09-13T10:18:44.284Z,3.2
2022-09-13T10:24:10.616Z,2.6
2022-09-13T10:29:32.964Z,2.6
2022-09-13T10:34:56.310Z,2.5
2022-09-13T10:40:19.506Z,3.2
2022-09-13T10:45:45.852Z,2.7
2022-09-13T10:51:08.961Z,2.4
2022-09-13T10:56:31.245Z,2.6
2022-09-13T11:01:54.855Z,3.2
2022-09-13T11:07:23.499Z,2.7
2022-09-13T11:12:46.295Z,4.5
2022-09-13T11:18:08.861Z,3
2022-09-13T11:23:31.511Z,3.1
2022-09-13T11:28:54.866Z,4.3
2022-09-13T11:34:44.963Z,3.1
2022-09-13T11:40:07.898Z,3.9
2022-09-13T11:45:41.934Z,2.7
2022-09-13T11:51:04.820Z,2.8
2022-09-13T11:56:27.157Z,2.3
2022-09-13T12:01:50.689Z,4.3
2022-09-13T12:07:14.847Z,3
2022-09-13T12:12:36.885Z,2.6
2022-09-13T12:17:58.697Z,3.7
2022-09-13T12:23:22.555Z,3
2022-09-13T12:28:53.023Z,2.6
2022-09-13T12:34:15.499Z,2.5
2022-09-13T12:39:38.781Z,2
2022-09-13T12:45:01.027Z,1.9
2022-09-13T12:50:48.939Z,5.9
2022-09-13T12:56:13.018Z,4.6
2022-09-13T13:01:35.095Z,2.3
2022-09-13T13:07:00.426Z,3.1
2022-09-13T13:12:29.304Z,3.3
2022-09-13T13:17:51.408Z,4.4
2022-09-13T13:23:14.045Z,3.2
2022-09-13T13:28:37.373Z,2.2
2022-09-13T13:34:00.071Z,2.8
2022-09-13T13:39:22.716Z,2.2
2022-09-13T13:44:45.793Z,3.1
2022-09-13T13:50:09.241Z,3.2
2022-09-13T13:55:48.867Z,1.9
2022-09-13T14:01:11.139Z,1.6
2022-09-13T14:06:33.529Z,1.5
2022-09-13T14:11:55.688Z,1.5
2022-09-13T14:17:27.800Z,1.6
2022-09-13T14:22:53.633Z,1.4
2022-09-13T14:28:17.673Z,1
2022-09-13T14:33:43.435Z,0.8
2022-09-13T14:39:05.814Z,0.7
2022-09-13T14:45:08.863Z,0.6
2022-09-13T14:50:31.294Z,0.4
2022-09-13T14:55:53.608Z,0.5
2022-09-13T15:02:45.605Z,0.5
2022-09-13T15:08:08.675Z,0.5
2022-09-13T15:13:31.145Z,0.5
2022-09-13T15:18:54.509Z,0.4
2022-09-13T15:24:17.305Z,0.4
2022-09-13T15:29:40.064Z,0.4
2022-09-13T15:35:03.404Z,0.3
2022-09-13T15:40:27.005Z,0.3
2022-09-13T15:45:50.353Z,0.3
2022-09-13T15:51:12.909Z,0.2
2022-09-13T15:56:38.633Z,0.2
2022-09-13T16:02:03.588Z,0.2
2022-09-13T16:07:25.907Z,0.2
2022-09-13T16:12:51.365Z,0.1
2022-09-13T16:18:15.027Z,0.1
2022-09-13T16:23:40.596Z,0.2
2022-09-13T16:29:03.178Z,0.2
2022-09-13T16:34:25.806Z,0.2
2022-09-13T16:39:48.440Z,0.2
2022-09-13T16:45:11.597Z,0.2
2022-09-13T16:50:36.762Z,0.2
2022-09-13T16:56:01.017Z,0.1
2022-09-13T17:01:29.693Z,0.1
2022-09-13T17:06:55.209Z,0.1
2022-09-13T17:12:17.761Z,0.1
2022-09-13T17:17:40.280Z,0.1
2022-09-13T17:23:05.352Z,0
2022-09-13T17:28:28.077Z,0
2022-09-13T17:33:50.678Z,0
2022-09-13T17:39:13.389Z,0
2022-09-13T17:46:09.897Z,0
2022-09-13T17:51:32.636Z,0
2022-09-13T17:56:55.083Z,0
2022-09-13T18:02:17.691Z,0
2022-09-13T18:07:41.075Z,0
2022-09-13T18:13:04.007Z,0
2022-09-13T18:23:49.113Z,0
2022-09-13T18:29:11.783Z,0
2022-09-13T18:34:34.131Z,0
2022-09-13T18:39:56.851Z,0
2022-09-13T18:50:36.670Z,0
2022-09-13T18:55:59.597Z,0
2022-09-13T19:06:30.335Z,0
2022-09-13T19:11:53.390Z,0
2022-09-13T19:17:16.468Z,0
2022-09-13T19:22:39.095Z,0
2022-09-13T19:28:01.657Z,0
2022-09-13T19:33:24.811Z,0
2022-09-13T19:38:47.314Z,0
2022-09-13T19:44:10.063Z,0
2022-09-13T19:54:55.238Z,0
2022-09-13T20:00:18.916Z,0
2022-09-13T20:05:41.559Z,0
2022-09-13T20:11:03.839Z,0
2022-09-13T20:16:26.976Z,0
2022-09-13T20:21:49.701Z,0
2022-09-13T20:27:12.050Z,0
2022-09-13T20:32:35.208Z,0
2022-09-13T20:38:00.743Z,0
2022-09-13T20:43:23.385Z,0
2022-09-13T20:48:54.919Z,0
2022-09-13T20:54:17.708Z,0
2022-09-13T20:59:40.099Z,0
2022-09-13T21:05:02.517Z,0
2022-09-13T21:10:27.913Z,0
2022-09-13T21:15:53.218Z,0
2022-09-13T21:21:15.791Z,0
2022-09-13T21:26:38.291Z,0
2022-09-13T21:37:26.793Z,0
2022-09-13T21:42:49.444Z,0
2022-09-13T21:48:11.999Z,0
2022-09-13T21:53:34.923Z,0
2022-09-13T21:58:57.323Z,0
2022-09-13T22:04:22.171Z,0
2022-09-13T22:09:45.119Z,0
2022-09-13T22:15:07.872Z,0
2022-09-13T22:20:31.127Z,0
2022-09-13T22:25:56.424Z,0
2022-09-13T22:31:21.489Z,0
2022-09-13T22:36:44.455Z,0
2022-09-13T22:42:07.098Z,0
2022-09-13T22:47:29.636Z,0
2022-09-13T22:52:52.001Z,0
2022-09-13T22:58:14.421Z,0
2022-09-13T23:08:45.759Z,0
2022-09-13T23:14:29.542Z,0
2022-09-13T23:25:14.669Z,0
2022-09-13T23:36:14.103Z,0
2022-09-13T23:41:39.499Z,0
2022-09-13T23:47:02.223Z,0
2022-09-13T23:57:52.356Z,0
